createdAt,value
2022-10-20T00:00:26.740Z,29.65
2022-10-20T00:01:26.776Z,29.71
2022-10-20T00:02:26.934Z,29.68
2022-10-20T00:03:26.839Z,29.71
2022-10-20T00:04:26.875Z,29.71
2022-10-20T00:05:26.903Z,29.60
2022-10-20T00:06:26.938Z,29.71
2022-10-20T00:07:26.969Z,29.63
2022-10-20T00:08:27.049Z,29.72
2022-10-20T00:09:27.035Z,29.68
2022-10-20T00:10:27.069Z,29.55
2022-10-20T00:11:27.104Z,29.66
2022-10-20T00:12:27.137Z,29.66
2022-10-20T00:13:27.168Z,29.68
2022-10-20T00:14:27.206Z,29.63
2022-10-20T00:15:27.234Z,29.70
2022-10-20T00:16:27.268Z,29.66
2022-10-20T00:17:27.299Z,29.62
2022-10-20T00:18:27.358Z,29.70
2022-10-20T00:19:27.366Z,29.70
2022-10-20T00:20:27.404Z,29.71
2022-10-20T00:21:27.433Z,29.65
2022-10-20T00:22:27.466Z,29.72
2022-10-20T00:23:27.497Z,29.66
2022-10-20T00:24:27.532Z,29.74
2022-10-20T00:25:27.567Z,29.68
2022-10-20T00:26:27.599Z,29.68
2022-10-20T00:27:27.631Z,29.72
2022-10-20T00:28:27.664Z,29.74
2022-10-20T00:29:27.703Z,29.66
2022-10-20T00:30:27.734Z,29.65
2022-10-20T00:31:27.765Z,29.68
2022-10-20T00:32:27.797Z,29.68
2022-10-20T00:33:27.829Z,29.70
2022-10-20T00:34:28.167Z,29.66
2022-10-20T00:35:27.899Z,29.75
2022-10-20T00:36:27.930Z,29.70
2022-10-20T00:37:27.962Z,29.72
2022-10-20T00:38:27.995Z,29.65
2022-10-20T00:39:28.028Z,29.68
2022-10-20T00:40:28.062Z,29.71
2022-10-20T00:41:28.093Z,29.74
2022-10-20T00:42:28.127Z,29.70
2022-10-20T00:43:28.162Z,29.77
2022-10-20T00:44:28.193Z,29.72
2022-10-20T00:45:28.227Z,29.72
2022-10-20T00:46:28.263Z,29.71
2022-10-20T00:47:28.293Z,29.68
2022-10-20T00:48:28.325Z,29.70
2022-10-20T00:49:28.358Z,29.72
2022-10-20T00:50:28.416Z,29.66
2022-10-20T00:51:28.425Z,29.66
2022-10-20T00:52:28.459Z,29.66
2022-10-20T00:53:28.490Z,29.66
2022-10-20T00:54:28.523Z,29.70
2022-10-20T00:55:28.556Z,29.63
2022-10-20T00:56:28.590Z,29.68
2022-10-20T00:57:28.623Z,29.70
2022-10-20T00:58:28.660Z,29.71
2022-10-20T00:59:28.693Z,29.79
2022-10-20T01:00:28.723Z,29.75
2022-10-20T01:01:28.780Z,29.75
2022-10-20T01:02:28.788Z,29.78
2022-10-20T01:03:28.821Z,29.74
2022-10-20T01:04:28.855Z,29.70
2022-10-20T01:05:28.887Z,29.75
2022-10-20T01:06:28.962Z,29.79
2022-10-20T01:07:28.955Z,29.82
2022-10-20T01:08:29.058Z,29.71
2022-10-20T01:09:29.019Z,29.75
2022-10-20T01:10:29.053Z,29.70
2022-10-20T01:11:29.089Z,29.75
2022-10-20T01:12:29.120Z,29.74
2022-10-20T01:13:29.151Z,29.72
2022-10-20T01:14:29.186Z,29.78
2022-10-20T01:15:29.236Z,29.75
2022-10-20T01:16:29.252Z,29.70
2022-10-20T01:17:29.287Z,29.77
2022-10-20T01:18:29.318Z,29.74
2022-10-20T01:19:29.350Z,29.77
2022-10-20T01:20:29.384Z,29.78
2022-10-20T01:21:29.417Z,29.75
2022-10-20T01:22:29.474Z,29.75
2022-10-20T01:23:29.483Z,29.78
2022-10-20T01:24:29.532Z,29.70
2022-10-20T01:25:29.551Z,29.75
2022-10-20T01:26:29.583Z,29.68
2022-10-20T01:27:29.615Z,29.79
2022-10-20T01:28:29.650Z,29.78
2022-10-20T01:29:29.682Z,29.79
2022-10-20T01:30:29.719Z,29.78
2022-10-20T01:31:29.761Z,29.81
2022-10-20T01:32:29.784Z,29.79
2022-10-20T01:33:29.817Z,29.68
2022-10-20T01:34:29.848Z,29.71
2022-10-20T01:35:29.880Z,29.75
2022-10-20T01:36:29.913Z,29.77
2022-10-20T01:37:47.563Z,29.81
2022-10-20T01:38:30.004Z,29.75
2022-10-20T01:39:30.012Z,29.77
2022-10-20T01:40:30.045Z,29.75
2022-10-20T01:41:30.078Z,29.74
2022-10-20T01:42:30.173Z,29.70
2022-10-20T01:43:30.145Z,29.74
2022-10-20T01:44:30.180Z,29.74
2022-10-20T01:45:30.217Z,29.75
2022-10-20T01:46:30.246Z,29.75
2022-10-20T01:47:30.279Z,29.74
2022-10-20T01:48:30.313Z,29.75
2022-10-20T01:49:30.347Z,29.72
2022-10-20T01:50:30.376Z,29.74
2022-10-20T01:51:30.484Z,29.77
2022-10-20T01:52:30.446Z,29.74
2022-10-20T01:53:30.475Z,29.78
2022-10-20T01:54:30.535Z,29.75
2022-10-20T01:55:30.541Z,29.75
2022-10-20T01:56:30.576Z,29.71
2022-10-20T01:57:30.607Z,29.75
2022-10-20T01:58:30.658Z,29.78
2022-10-20T01:59:30.676Z,29.72
2022-10-20T02:00:30.708Z,29.74
2022-10-20T02:01:30.769Z,29.74
2022-10-20T02:02:30.774Z,29.77
2022-10-20T02:03:30.807Z,29.71
2022-10-20T02:04:30.842Z,29.75
2022-10-20T02:05:30.872Z,29.75
2022-10-20T02:06:30.905Z,29.75
2022-10-20T02:07:30.940Z,29.74
2022-10-20T02:08:31.052Z,29.74
2022-10-20T02:09:31.005Z,29.70
2022-10-20T02:10:31.063Z,29.78
2022-10-20T02:11:31.071Z,29.71
2022-10-20T02:12:31.104Z,29.71
2022-10-20T02:13:31.137Z,29.81
2022-10-20T02:14:31.171Z,29.75
2022-10-20T02:15:31.203Z,29.68
2022-10-20T02:16:31.236Z,29.79
2022-10-20T02:17:31.269Z,29.74
2022-10-20T02:18:31.304Z,29.79
2022-10-20T02:19:31.336Z,29.74
2022-10-20T02:20:31.378Z,29.74
2022-10-20T02:21:31.402Z,29.72
2022-10-20T02:22:31.436Z,29.75
2022-10-20T02:23:35.063Z,29.74
2022-10-20T02:24:31.503Z,29.75
2022-10-20T02:25:31.536Z,29.77
2022-10-20T02:26:31.594Z,29.74
2022-10-20T02:27:31.602Z,29.74
2022-10-20T02:28:31.635Z,29.74
2022-10-20T02:29:31.669Z,29.77
2022-10-20T02:30:31.699Z,29.71
2022-10-20T02:31:31.734Z,29.79
2022-10-20T02:32:31.774Z,29.72
2022-10-20T02:33:31.799Z,29.77
2022-10-20T02:34:31.832Z,29.74
2022-10-20T02:35:31.870Z,29.75
2022-10-20T02:36:31.900Z,29.75
2022-10-20T02:37:31.932Z,29.74
2022-10-20T02:38:31.967Z,29.77
2022-10-20T02:39:31.999Z,29.71
2022-10-20T02:40:32.045Z,29.71
2022-10-20T02:41:32.065Z,29.79
2022-10-20T02:42:32.123Z,29.84
2022-10-20T02:43:32.133Z,29.77
2022-10-20T02:44:32.165Z,29.82
2022-10-20T02:45:32.199Z,29.77
2022-10-20T02:46:32.229Z,29.78
2022-10-20T02:47:32.264Z,29.75
2022-10-20T02:48:32.296Z,29.78
2022-10-20T02:49:32.329Z,29.74
2022-10-20T02:50:32.362Z,29.77
2022-10-20T02:51:32.395Z,29.75
2022-10-20T02:52:32.429Z,29.78
2022-10-20T02:53:32.462Z,29.71
2022-10-20T02:54:32.494Z,29.75
2022-10-20T02:55:32.534Z,29.77
2022-10-20T02:56:32.561Z,29.81
2022-10-20T02:57:32.658Z,29.77
2022-10-20T02:58:32.653Z,29.79
2022-10-20T02:59:32.661Z,29.79
2022-10-20T03:00:32.694Z,29.79
2022-10-20T03:01:32.750Z,29.71
2022-10-20T03:02:32.759Z,29.72
2022-10-20T03:03:32.792Z,29.78
2022-10-20T03:04:32.834Z,29.81
2022-10-20T03:05:32.860Z,29.70
2022-10-20T03:06:32.893Z,29.77
2022-10-20T03:07:33.100Z,29.68
2022-10-20T03:08:33.004Z,29.78
2022-10-20T03:09:32.994Z,29.78
2022-10-20T03:10:33.024Z,29.71
2022-10-20T03:11:33.057Z,29.75
2022-10-20T03:12:33.091Z,29.71
2022-10-20T03:13:33.129Z,29.77
2022-10-20T03:14:33.183Z,29.74
2022-10-20T03:15:33.190Z,29.81
2022-10-20T03:16:33.224Z,29.77
2022-10-20T03:17:33.429Z,29.79
2022-10-20T03:18:33.289Z,29.75
2022-10-20T03:19:33.324Z,29.75
2022-10-20T03:20:33.355Z,29.71
2022-10-20T03:21:33.390Z,29.77
2022-10-20T03:22:33.429Z,29.78
2022-10-20T03:23:33.455Z,29.78
2022-10-20T03:24:33.489Z,29.77
2022-10-20T03:25:33.521Z,29.79
2022-10-20T03:26:33.556Z,29.79
2022-10-20T03:27:33.902Z,29.77
2022-10-20T03:28:33.619Z,29.70
2022-10-20T03:29:33.653Z,29.77
2022-10-20T03:30:33.711Z,29.78
2022-10-20T03:31:33.720Z,29.70
2022-10-20T03:32:34.158Z,29.74
2022-10-20T03:33:33.786Z,29.74
2022-10-20T03:34:33.818Z,29.75
2022-10-20T03:35:33.861Z,29.77
2022-10-20T03:36:33.884Z,29.72
2022-10-20T03:37:33.918Z,29.77
2022-10-20T03:38:33.951Z,29.75
2022-10-20T03:39:33.985Z,29.74
2022-10-20T03:40:34.019Z,29.78
2022-10-20T03:41:34.050Z,29.70
2022-10-20T03:42:34.540Z,29.70
2022-10-20T03:43:34.116Z,29.75
2022-10-20T03:44:34.152Z,29.86
2022-10-20T03:45:34.182Z,29.81
2022-10-20T03:46:34.241Z,29.77
2022-10-20T03:47:34.258Z,29.78
2022-10-20T03:48:34.283Z,29.71
2022-10-20T03:49:34.315Z,29.72
2022-10-20T03:50:34.349Z,29.81
2022-10-20T03:51:34.382Z,29.78
2022-10-20T03:52:34.855Z,29.74
2022-10-20T03:53:34.448Z,29.75
2022-10-20T03:54:34.481Z,29.75
2022-10-20T03:55:34.516Z,29.75
2022-10-20T03:56:34.550Z,29.75
2022-10-20T03:57:34.859Z,29.75
2022-10-20T03:58:34.613Z,29.74
2022-10-20T03:59:34.647Z,29.77
2022-10-20T04:00:34.691Z,29.75
2022-10-20T04:01:34.823Z,29.77
2022-10-20T04:02:35.169Z,29.79
2022-10-20T04:03:34.782Z,29.79
2022-10-20T04:04:34.812Z,29.82
2022-10-20T04:05:34.844Z,29.75
2022-10-20T04:06:34.878Z,29.81
2022-10-20T04:07:34.912Z,29.84
2022-10-20T04:08:35.015Z,29.84
2022-10-20T04:09:34.977Z,29.78
2022-10-20T04:10:35.011Z,29.77
2022-10-20T04:11:35.045Z,29.78
2022-10-20T04:12:35.383Z,29.79
2022-10-20T04:13:35.111Z,29.74
2022-10-20T04:14:35.145Z,29.79
2022-10-20T04:15:35.177Z,29.78
2022-10-20T04:16:35.210Z,29.78
2022-10-20T04:17:35.316Z,29.82
2022-10-20T04:18:35.376Z,29.86
2022-10-20T04:19:35.308Z,29.84
2022-10-20T04:20:37.357Z,29.81
2022-10-20T04:21:35.376Z,29.79
2022-10-20T04:22:35.716Z,29.78
2022-10-20T04:23:35.443Z,29.82
2022-10-20T04:24:35.475Z,29.78
2022-10-20T04:25:35.508Z,29.79
2022-10-20T04:26:35.542Z,29.82
2022-10-20T04:27:35.974Z,29.82
2022-10-20T04:28:35.608Z,29.78
2022-10-20T04:29:35.639Z,29.81
2022-10-20T04:30:35.673Z,29.86
2022-10-20T04:31:35.706Z,29.86
2022-10-20T04:32:35.741Z,29.82
2022-10-20T04:33:35.773Z,29.82
2022-10-20T04:34:35.829Z,29.84
2022-10-20T04:35:35.915Z,29.81
2022-10-20T04:36:35.872Z,29.75
2022-10-20T04:37:36.182Z,29.82
2022-10-20T04:38:35.939Z,29.78
2022-10-20T04:39:35.971Z,29.82
2022-10-20T04:40:36.004Z,29.82
2022-10-20T04:41:36.037Z,29.82
2022-10-20T04:42:36.070Z,29.84
2022-10-20T04:43:36.104Z,29.82
2022-10-20T04:44:36.137Z,29.86
2022-10-20T04:45:36.170Z,29.82
2022-10-20T04:46:36.209Z,29.87
2022-10-20T04:47:36.471Z,29.82
2022-10-20T04:48:36.269Z,29.87
2022-10-20T04:49:36.302Z,29.81
2022-10-20T04:50:36.360Z,29.84
2022-10-20T04:51:36.368Z,29.86
2022-10-20T04:52:36.402Z,29.86
2022-10-20T04:53:36.436Z,29.81
2022-10-20T04:54:36.468Z,29.84
2022-10-20T04:55:36.501Z,29.81
2022-10-20T04:56:36.535Z,29.87
2022-10-20T04:57:36.925Z,29.87
2022-10-20T04:58:36.601Z,29.87
2022-10-20T04:59:36.636Z,29.81
2022-10-20T05:00:36.669Z,29.82
2022-10-20T05:01:36.775Z,29.96
2022-10-20T05:02:36.736Z,29.99
2022-10-20T05:03:36.767Z,30.00
2022-10-20T05:04:36.800Z,29.96
2022-10-20T05:05:36.832Z,29.93
2022-10-20T05:06:36.890Z,29.94
2022-10-20T05:07:37.186Z,30.02
2022-10-20T05:08:37.062Z,29.94
2022-10-20T05:09:36.966Z,29.99
2022-10-20T05:10:36.998Z,30.02
2022-10-20T05:11:37.035Z,29.94
2022-10-20T05:12:37.346Z,30.00
2022-10-20T05:13:37.101Z,30.02
2022-10-20T05:14:37.131Z,29.99
2022-10-20T05:15:37.164Z,30.09
2022-10-20T05:16:37.198Z,30.09
2022-10-20T05:17:37.230Z,30.08
2022-10-20T05:18:37.266Z,30.05
2022-10-20T05:19:37.304Z,30.03
2022-10-20T05:20:45.936Z,30.07
2022-10-20T05:21:37.408Z,30.03
2022-10-20T05:22:37.825Z,30.08
2022-10-20T05:23:37.429Z,30.05
2022-10-20T05:24:37.464Z,30.12
2022-10-20T05:25:37.497Z,30.11
2022-10-20T05:26:37.535Z,30.07
2022-10-20T05:27:37.563Z,30.21
2022-10-20T05:28:37.596Z,30.15
2022-10-20T05:29:37.628Z,30.11
2022-10-20T05:30:37.768Z,30.07
2022-10-20T05:32:38.051Z,30.29
2022-10-20T05:33:37.763Z,30.24
2022-10-20T05:34:37.795Z,30.18
2022-10-20T05:35:37.831Z,30.16
2022-10-20T05:36:37.862Z,30.19
2022-10-20T05:37:37.895Z,30.24
2022-10-20T05:38:37.957Z,30.27
2022-10-20T05:39:38.065Z,30.27
2022-10-20T05:40:37.997Z,30.30
2022-10-20T05:41:39.047Z,30.30
2022-10-20T05:42:38.487Z,30.24
2022-10-20T05:43:38.094Z,30.24
2022-10-20T05:44:38.129Z,30.30
2022-10-20T05:45:38.160Z,30.26
2022-10-20T05:46:38.199Z,30.27
2022-10-20T05:47:38.230Z,30.29
2022-10-20T05:48:42.799Z,30.30
2022-10-20T05:49:38.293Z,30.34
2022-10-20T05:50:38.373Z,30.33
2022-10-20T05:51:38.360Z,30.31
2022-10-20T05:52:38.637Z,30.31
2022-10-20T05:53:38.428Z,30.37
2022-10-20T05:54:38.485Z,30.37
2022-10-20T05:55:38.494Z,30.43
2022-10-20T05:56:38.526Z,30.36
2022-10-20T05:57:38.560Z,30.37
2022-10-20T05:58:38.599Z,30.36
2022-10-20T05:59:38.627Z,30.37
2022-10-20T06:00:38.662Z,30.38
2022-10-20T06:01:38.701Z,30.38
2022-10-20T06:02:39.000Z,30.40
2022-10-20T06:03:38.760Z,30.40
2022-10-20T06:04:38.794Z,30.38
2022-10-20T06:05:38.828Z,30.40
2022-10-20T06:06:38.860Z,30.49
2022-10-20T06:07:38.895Z,30.33
2022-10-20T06:08:38.945Z,30.46
2022-10-20T06:09:38.963Z,30.47
2022-10-20T06:10:39.018Z,30.46
2022-10-20T06:11:39.625Z,30.52
2022-10-20T06:12:39.324Z,30.54
2022-10-20T06:13:39.093Z,30.49
2022-10-20T06:14:39.127Z,30.50
2022-10-20T06:15:39.162Z,30.47
2022-10-20T06:16:39.194Z,30.50
2022-10-20T06:17:39.228Z,30.54
2022-10-20T06:18:39.260Z,30.57
2022-10-20T06:19:39.293Z,30.45
2022-10-20T06:20:39.328Z,30.57
2022-10-20T06:21:39.484Z,30.57
2022-10-20T06:22:39.798Z,30.62
2022-10-20T06:23:39.426Z,30.61
2022-10-20T06:24:39.461Z,30.61
2022-10-20T06:25:39.495Z,30.54
2022-10-20T06:26:39.561Z,30.57
2022-10-20T06:27:39.560Z,30.57
2022-10-20T06:28:39.594Z,30.56
2022-10-20T06:29:39.627Z,30.54
2022-10-20T06:30:39.662Z,30.67
2022-10-20T06:31:39.693Z,30.67
2022-10-20T06:32:39.807Z,30.65
2022-10-20T06:33:39.763Z,30.64
2022-10-20T06:34:39.795Z,30.67
2022-10-20T06:35:39.831Z,30.62
2022-10-20T06:36:39.861Z,30.65
2022-10-20T06:37:39.896Z,30.69
2022-10-20T06:38:39.927Z,30.67
2022-10-20T06:39:39.962Z,30.68
2022-10-20T06:40:39.995Z,30.65
2022-10-20T06:41:40.026Z,30.65
2022-10-20T06:42:40.086Z,30.72
2022-10-20T06:43:40.097Z,30.67
2022-10-20T06:44:40.129Z,30.64
2022-10-20T06:45:40.162Z,30.75
2022-10-20T06:46:40.195Z,30.69
2022-10-20T06:47:40.487Z,30.72
2022-10-20T06:48:40.285Z,30.74
2022-10-20T06:49:40.309Z,30.74
2022-10-20T06:50:40.329Z,30.71
2022-10-20T06:51:40.363Z,30.72
2022-10-20T06:52:40.397Z,30.75
2022-10-20T06:53:42.739Z,30.75
2022-10-20T06:54:40.463Z,30.65
2022-10-20T06:55:40.497Z,30.67
2022-10-20T06:56:40.530Z,30.65
2022-10-20T06:57:40.562Z,30.71
2022-10-20T06:58:40.623Z,30.75
2022-10-20T06:59:40.630Z,30.74
2022-10-20T07:00:40.664Z,30.74
2022-10-20T07:01:40.787Z,30.67
2022-10-20T07:02:40.730Z,30.75
2022-10-20T07:03:40.765Z,30.72
2022-10-20T07:04:40.798Z,30.75
2022-10-20T07:05:40.835Z,30.75
2022-10-20T07:06:40.864Z,30.76
2022-10-20T07:07:41.126Z,30.69
2022-10-20T07:08:41.019Z,30.74
2022-10-20T07:09:40.969Z,30.75
2022-10-20T07:10:40.998Z,30.76
2022-10-20T07:11:41.034Z,30.76
2022-10-20T07:12:41.066Z,30.83
2022-10-20T07:13:41.099Z,30.76
2022-10-20T07:14:41.158Z,30.78
2022-10-20T07:15:41.167Z,30.78
2022-10-20T07:16:41.202Z,30.78
2022-10-20T07:17:41.234Z,30.80
2022-10-20T07:18:41.362Z,30.74
2022-10-20T07:19:41.304Z,30.78
2022-10-20T07:20:41.334Z,30.76
2022-10-20T07:21:45.350Z,30.80
2022-10-20T07:22:41.400Z,30.78
2022-10-20T07:23:41.435Z,30.76
2022-10-20T07:24:41.468Z,30.78
2022-10-20T07:25:41.503Z,30.84
2022-10-20T07:26:41.540Z,30.76
2022-10-20T07:27:41.568Z,30.78
2022-10-20T07:28:41.602Z,30.86
2022-10-20T07:29:41.637Z,30.83
2022-10-20T07:30:41.694Z,30.78
2022-10-20T07:31:41.702Z,30.80
2022-10-20T07:32:41.738Z,30.80
2022-10-20T07:33:41.784Z,30.83
2022-10-20T07:34:41.803Z,30.81
2022-10-20T07:35:41.837Z,30.86
2022-10-20T07:36:41.870Z,30.89
2022-10-20T07:37:41.905Z,30.87
2022-10-20T07:38:41.940Z,30.84
2022-10-20T07:39:41.973Z,30.83
2022-10-20T07:40:42.007Z,30.86
2022-10-20T07:41:42.038Z,30.76
2022-10-20T07:42:42.071Z,30.86
2022-10-20T07:43:42.107Z,30.87
2022-10-20T07:44:42.142Z,30.84
2022-10-20T07:45:42.173Z,30.89
2022-10-20T07:46:42.234Z,30.87
2022-10-20T07:47:45.391Z,30.89
2022-10-20T07:48:42.277Z,30.87
2022-10-20T07:49:44.643Z,30.89
2022-10-20T07:50:42.342Z,30.89
2022-10-20T07:51:42.374Z,30.91
2022-10-20T07:52:42.408Z,30.93
2022-10-20T07:53:42.441Z,30.89
2022-10-20T07:54:42.477Z,30.90
2022-10-20T07:55:42.510Z,30.94
2022-10-20T07:56:42.544Z,30.91
2022-10-20T07:57:42.576Z,30.91
2022-10-20T07:58:42.612Z,30.99
2022-10-20T07:59:42.644Z,30.96
2022-10-20T08:00:42.733Z,30.93
2022-10-20T08:01:42.831Z,30.93
2022-10-20T08:02:42.770Z,30.98
2022-10-20T08:03:42.779Z,30.89
2022-10-20T08:04:42.813Z,30.99
2022-10-20T08:05:42.846Z,31.01
2022-10-20T08:06:42.882Z,31.01
2022-10-20T08:07:42.912Z,30.87
2022-10-20T08:08:42.964Z,31.02
2022-10-20T08:09:42.978Z,30.94
2022-10-20T08:10:43.015Z,30.89
2022-10-20T08:11:43.049Z,30.99
2022-10-20T08:12:43.082Z,30.99
2022-10-20T08:13:43.114Z,30.98
2022-10-20T08:14:43.150Z,30.99
2022-10-20T08:16:43.224Z,30.98
2022-10-20T08:17:43.254Z,30.99
2022-10-20T08:19:55.924Z,30.98
2022-10-20T08:20:43.350Z,31.02
2022-10-20T08:21:43.385Z,30.96
2022-10-20T08:22:43.417Z,31.01
2022-10-20T08:23:43.451Z,30.99
2022-10-20T08:24:43.485Z,31.04
2022-10-20T08:25:43.518Z,31.05
2022-10-20T08:26:43.553Z,31.04
2022-10-20T08:27:43.587Z,31.02
2022-10-20T08:28:43.621Z,31.05
2022-10-20T08:29:50.781Z,31.02
2022-10-20T08:30:43.688Z,31.04
2022-10-20T08:31:43.721Z,31.06
2022-10-20T08:32:43.755Z,31.01
2022-10-20T08:33:43.790Z,31.01
2022-10-20T08:34:43.822Z,31.05
2022-10-20T08:35:43.881Z,31.06
2022-10-20T08:36:43.890Z,31.02
2022-10-20T08:37:43.924Z,31.01
2022-10-20T08:38:43.958Z,31.06
2022-10-20T08:39:43.992Z,31.08
2022-10-20T08:40:44.025Z,31.06
2022-10-20T08:42:06.425Z,31.06
2022-10-20T08:42:44.099Z,31.09
2022-10-20T08:43:44.128Z,31.08
2022-10-20T08:44:44.237Z,31.02
2022-10-20T08:45:44.192Z,31.06
2022-10-20T08:46:44.234Z,31.13
2022-10-20T08:47:44.262Z,31.08
2022-10-20T08:48:44.297Z,31.12
2022-10-20T08:49:44.327Z,30.99
2022-10-20T08:50:44.361Z,31.11
2022-10-20T08:51:44.420Z,31.13
2022-10-20T08:52:44.429Z,31.09
2022-10-20T08:53:44.463Z,31.11
2022-10-20T08:54:44.655Z,31.15
2022-10-20T08:55:44.531Z,31.12
2022-10-20T08:56:44.569Z,31.13
2022-10-20T08:57:44.599Z,31.08
2022-10-20T08:58:44.632Z,31.09
2022-10-20T08:59:44.666Z,31.15
2022-10-20T09:00:44.704Z,31.08
2022-10-20T09:01:44.778Z,31.12
2022-10-20T09:02:44.769Z,31.15
2022-10-20T09:03:44.826Z,31.12
2022-10-20T09:04:44.844Z,31.09
2022-10-20T09:05:44.867Z,31.12
2022-10-20T09:06:44.911Z,31.12
2022-10-20T09:07:44.978Z,31.09
2022-10-20T09:08:45.035Z,31.11
2022-10-20T09:09:45.002Z,31.13
2022-10-20T09:10:45.036Z,31.09
2022-10-20T09:11:45.071Z,31.11
2022-10-20T09:12:45.105Z,31.12
2022-10-20T09:13:45.212Z,31.11
2022-10-20T09:14:45.171Z,31.18
2022-10-20T09:15:45.206Z,31.17
2022-10-20T09:16:59.383Z,31.20
2022-10-20T09:17:45.274Z,31.20
2022-10-20T09:18:45.307Z,31.18
2022-10-20T09:19:45.342Z,31.18
2022-10-20T09:20:45.376Z,31.18
2022-10-20T09:21:45.409Z,31.23
2022-10-20T09:22:45.446Z,31.24
2022-10-20T09:23:45.621Z,31.23
2022-10-20T09:24:45.512Z,31.21
2022-10-20T09:25:45.545Z,31.26
2022-10-20T09:26:58.054Z,31.20
2022-10-20T09:27:45.612Z,31.35
2022-10-20T09:29:08.612Z,31.20
2022-10-20T09:29:45.679Z,31.23
2022-10-20T09:30:45.719Z,31.20
2022-10-20T09:31:45.749Z,31.20
2022-10-20T09:32:47.363Z,31.23
2022-10-20T09:33:45.815Z,31.18
2022-10-20T09:34:45.850Z,31.23
2022-10-20T09:35:45.882Z,31.18
2022-10-20T09:36:45.918Z,31.15
2022-10-20T09:37:45.950Z,31.20
2022-10-20T09:38:45.985Z,31.12
2022-10-20T09:39:46.042Z,31.11
2022-10-20T09:40:46.052Z,31.15
2022-10-20T09:41:46.085Z,31.11
2022-10-20T09:42:46.119Z,31.12
2022-10-20T09:43:46.155Z,31.08
2022-10-20T09:44:46.187Z,31.11
2022-10-20T09:45:46.220Z,31.11
2022-10-20T09:46:46.256Z,31.13
2022-10-20T09:47:46.292Z,31.11
2022-10-20T09:48:46.324Z,31.08
2022-10-20T09:49:46.364Z,31.05
2022-10-20T09:50:46.391Z,31.06
2022-10-20T09:51:46.479Z,31.08
2022-10-20T09:52:46.458Z,31.08
2022-10-20T09:53:46.492Z,31.06
2022-10-20T09:54:46.527Z,31.01
2022-10-20T09:55:46.584Z,30.98
2022-10-20T09:56:46.594Z,31.01
2022-10-20T09:57:46.626Z,30.98
2022-10-20T09:58:46.661Z,30.96
2022-10-20T09:59:46.699Z,31.02
2022-10-20T10:00:46.819Z,30.94
2022-10-20T10:01:46.762Z,30.91
2022-10-20T10:02:46.796Z,30.91
2022-10-20T10:03:46.830Z,30.90
2022-10-20T10:04:46.863Z,30.90
2022-10-20T10:05:46.901Z,30.87
2022-10-20T10:06:46.930Z,30.89
2022-10-20T10:07:46.965Z,30.83
2022-10-20T10:08:47.055Z,30.87
2022-10-20T10:09:47.032Z,30.87
2022-10-20T10:10:47.066Z,30.75
2022-10-20T10:11:47.133Z,30.86
2022-10-20T10:12:47.133Z,30.89
2022-10-20T10:13:47.167Z,30.87
2022-10-20T10:14:47.200Z,30.90
2022-10-20T10:15:47.234Z,30.81
2022-10-20T10:16:47.269Z,30.80
2022-10-20T10:17:47.305Z,30.87
2022-10-20T10:18:49.224Z,30.81
2022-10-20T10:19:47.750Z,30.84
2022-10-20T10:20:47.404Z,30.83
2022-10-20T10:21:47.436Z,30.80
2022-10-20T10:22:47.471Z,30.80
2022-10-20T10:23:47.506Z,30.78
2022-10-20T10:24:47.539Z,30.78
2022-10-20T10:25:47.576Z,30.81
2022-10-20T10:26:47.604Z,30.78
2022-10-20T10:27:47.664Z,30.72
2022-10-20T10:28:47.672Z,30.64
2022-10-20T10:29:47.704Z,30.71
2022-10-20T10:30:50.063Z,30.71
2022-10-20T10:31:47.774Z,30.69
2022-10-20T10:32:47.807Z,30.80
2022-10-20T10:33:47.840Z,30.71
2022-10-20T10:34:47.875Z,30.68
2022-10-20T10:35:47.908Z,30.76
2022-10-20T10:36:47.941Z,30.78
2022-10-20T10:37:47.976Z,30.80
2022-10-20T10:38:48.008Z,30.76
2022-10-20T10:39:48.043Z,30.67
2022-10-20T10:40:48.077Z,30.67
2022-10-20T10:41:48.189Z,30.80
2022-10-20T10:42:48.143Z,30.74
2022-10-20T10:43:48.876Z,30.72
2022-10-20T10:44:48.214Z,30.78
2022-10-20T10:45:48.243Z,30.72
2022-10-20T10:46:48.280Z,30.69
2022-10-20T10:47:48.311Z,30.72
2022-10-20T10:48:48.346Z,30.71
2022-10-20T10:49:48.382Z,30.68
2022-10-20T10:50:48.411Z,30.76
2022-10-20T10:51:48.446Z,30.68
2022-10-20T10:52:48.483Z,30.65
2022-10-20T10:53:48.513Z,30.75
2022-10-20T10:54:48.546Z,30.68
2022-10-20T10:55:49.409Z,30.81
2022-10-20T10:56:48.613Z,30.68
2022-10-20T10:57:48.648Z,30.69
2022-10-20T10:58:48.687Z,30.72
2022-10-20T10:59:48.747Z,30.68
2022-10-20T11:00:48.800Z,30.74
2022-10-20T11:01:49.340Z,30.74
2022-10-20T11:02:48.815Z,30.59
2022-10-20T11:03:48.851Z,30.69
2022-10-20T11:04:48.882Z,30.62
2022-10-20T11:05:48.916Z,30.72
2022-10-20T11:06:48.949Z,30.68
2022-10-20T11:07:48.989Z,30.67
2022-10-20T11:08:49.075Z,30.69
2022-10-20T11:09:49.049Z,30.59
2022-10-20T11:10:49.084Z,30.68
2022-10-20T11:11:49.118Z,30.65
2022-10-20T11:12:49.152Z,30.67
2022-10-20T11:13:49.184Z,30.62
2022-10-20T11:14:49.218Z,30.65
2022-10-20T11:15:49.277Z,30.64
2022-10-20T11:16:49.291Z,30.69
2022-10-20T11:17:49.318Z,30.64
2022-10-20T11:18:49.352Z,30.57
2022-10-20T11:19:49.387Z,30.67
2022-10-20T11:20:49.420Z,30.56
2022-10-20T11:21:49.452Z,30.57
2022-10-20T11:22:49.486Z,30.59
2022-10-20T11:23:49.521Z,30.54
2022-10-20T11:24:49.556Z,30.54
2022-10-20T11:25:49.588Z,30.57
2022-10-20T11:26:49.621Z,30.61
2022-10-20T11:27:49.654Z,30.52
2022-10-20T11:28:49.696Z,30.56
2022-10-20T11:29:49.721Z,30.59
2022-10-20T11:30:49.755Z,30.54
2022-10-20T11:31:49.812Z,30.62
2022-10-20T11:32:49.822Z,30.59
2022-10-20T11:33:49.855Z,30.59
2022-10-20T11:34:49.889Z,30.57
2022-10-20T11:35:49.924Z,30.50
2022-10-20T11:36:49.957Z,30.57
2022-10-20T11:37:49.989Z,30.50
2022-10-20T11:38:50.022Z,30.52
2022-10-20T11:39:50.058Z,30.56
2022-10-20T11:40:50.091Z,30.56
2022-10-20T11:41:50.127Z,30.50
2022-10-20T11:42:50.163Z,30.47
2022-10-20T11:43:50.192Z,30.52
2022-10-20T11:44:50.225Z,30.54
2022-10-20T11:45:50.258Z,30.52
2022-10-20T11:46:50.294Z,30.52
2022-10-20T11:47:50.356Z,30.49
2022-10-20T11:48:50.358Z,30.62
2022-10-20T11:49:50.393Z,30.53
2022-10-20T11:50:50.430Z,30.53
2022-10-20T11:51:50.459Z,30.61
2022-10-20T11:52:50.492Z,30.49
2022-10-20T11:53:50.526Z,30.53
2022-10-20T11:54:50.559Z,30.47
2022-10-20T11:55:50.593Z,30.54
2022-10-20T11:56:50.628Z,30.54
2022-10-20T11:57:50.659Z,30.56
2022-10-20T11:58:50.694Z,30.49
2022-10-20T11:59:50.727Z,30.53
2022-10-20T12:00:50.761Z,30.49
2022-10-20T12:01:50.830Z,30.47
2022-10-20T12:02:50.827Z,30.52
2022-10-20T12:03:50.887Z,30.47
2022-10-20T12:04:50.897Z,30.52
2022-10-20T12:05:50.928Z,30.45
2022-10-20T12:06:50.963Z,30.46
2022-10-20T12:07:54.165Z,30.40
2022-10-20T12:08:51.089Z,30.46
2022-10-20T12:09:51.061Z,30.52
2022-10-20T12:10:51.095Z,30.45
2022-10-20T12:11:51.130Z,30.45
2022-10-20T12:12:51.162Z,30.46
2022-10-20T12:13:51.197Z,30.46
2022-10-20T12:14:51.240Z,30.50
2022-10-20T12:15:51.264Z,30.50
2022-10-20T12:16:51.298Z,30.47
2022-10-20T12:17:51.330Z,30.46
2022-10-20T12:18:51.444Z,30.52
2022-10-20T12:19:51.421Z,30.49
2022-10-20T12:20:51.436Z,30.49
2022-10-20T12:21:51.463Z,30.49
2022-10-20T12:22:51.499Z,30.49
2022-10-20T12:23:51.531Z,30.47
2022-10-20T12:24:51.565Z,30.46
2022-10-20T12:25:51.597Z,30.46
2022-10-20T12:26:51.631Z,30.47
2022-10-20T12:27:51.779Z,30.46
2022-10-20T12:28:51.699Z,30.45
2022-10-20T12:29:51.732Z,30.43
2022-10-20T12:30:51.765Z,30.50
2022-10-20T12:31:53.638Z,30.47
2022-10-20T12:32:51.832Z,30.34
2022-10-20T12:33:51.877Z,30.47
2022-10-20T12:34:51.899Z,30.46
2022-10-20T12:35:51.959Z,30.34
2022-10-20T12:36:51.989Z,30.43
2022-10-20T12:37:51.999Z,30.33
2022-10-20T12:38:52.032Z,30.45
2022-10-20T12:39:52.065Z,30.45
2022-10-20T12:40:52.100Z,30.45
2022-10-20T12:41:52.133Z,30.49
2022-10-20T12:42:52.166Z,30.34
2022-10-20T12:43:52.203Z,30.50
2022-10-20T12:44:52.232Z,30.36
2022-10-20T12:45:52.266Z,30.43
2022-10-20T12:46:52.303Z,30.40
2022-10-20T12:47:52.336Z,30.40
2022-10-20T12:48:52.367Z,30.40
2022-10-20T12:49:52.400Z,30.49
2022-10-20T12:50:52.433Z,30.40
2022-10-20T12:51:52.491Z,30.37
2022-10-20T12:52:52.502Z,30.43
2022-10-20T12:53:52.533Z,30.37
2022-10-20T12:54:52.568Z,30.37
2022-10-20T12:55:52.603Z,30.38